sensor_id;sensor_type;location;lat;lon;timestamp;P1;durP1;ratioP1;P2;durP2;ratioP2
1603;SDS011;795;49.296;11.348;2022-08-19T00:02:07;46.20;;;41.70;;
1603;SDS011;795;49.296;11.348;2022-08-19T00:04:34;43.67;;;39.57;;
1603;SDS011;795;49.296;11.348;2022-08-19T00:07:04;47.73;;;43.10;;
1603;SDS011;795;49.296;11.348;2022-08-19T00:09:33;44.40;;;40.30;;
1603;SDS011;795;49.296;11.348;2022-08-19T00:12:00;42.97;;;38.93;;
1603;SDS011;795;49.296;11.348;2022-08-19T00:14:29;45.70;;;41.10;;
1603;SDS011;795;49.296;11.348;2022-08-19T00:16:57;44.17;;;39.83;;
1603;SDS011;795;49.296;11.348;2022-08-19T00:19:25;47.60;;;42.03;;
1603;SDS011;795;49.296;11.348;2022-08-19T00:21:52;46.43;;;41.90;;
1603;SDS011;795;49.296;11.348;2022-08-19T00:24:21;46.67;;;42.17;;
1603;SDS011;795;49.296;11.348;2022-08-19T00:26:48;45.70;;;41.43;;
1603;SDS011;795;49.296;11.348;2022-08-19T00:29:18;45.87;;;41.63;;
1603;SDS011;795;49.296;11.348;2022-08-19T00:31:48;46.43;;;41.60;;
1603;SDS011;795;49.296;11.348;2022-08-19T00:34:19;45.90;;;41.60;;
1603;SDS011;795;49.296;11.348;2022-08-19T00:36:49;44.43;;;40.13;;
1603;SDS011;795;49.296;11.348;2022-08-19T00:39:16;46.47;;;41.97;;
1603;SDS011;795;49.296;11.348;2022-08-19T00:41:44;46.80;;;42.20;;
1603;SDS011;795;49.296;11.348;2022-08-19T00:44:17;46.53;;;41.93;;
1603;SDS011;795;49.296;11.348;2022-08-19T00:46:53;47.00;;;42.67;;
1603;SDS011;795;49.296;11.348;2022-08-19T00:49:37;48.03;;;43.30;;
1603;SDS011;795;49.296;11.348;2022-08-19T00:52:23;47.67;;;43.17;;
1603;SDS011;795;49.296;11.348;2022-08-19T00:55:00;47.73;;;42.93;;
1603;SDS011;795;49.296;11.348;2022-08-19T00:57:35;48.33;;;43.43;;
1603;SDS011;795;49.296;11.348;2022-08-19T01:00:11;47.57;;;42.87;;
1603;SDS011;795;49.296;11.348;2022-08-19T01:02:43;51.20;;;46.10;;
1603;SDS011;795;49.296;11.348;2022-08-19T01:05:13;48.50;;;43.23;;
1603;SDS011;795;49.296;11.348;2022-08-19T01:07:47;50.90;;;45.77;;
1603;SDS011;795;49.296;11.348;2022-08-19T01:10:18;51.07;;;45.10;;
1603;SDS011;795;49.296;11.348;2022-08-19T01:12:53;49.43;;;44.53;;
1603;SDS011;795;49.296;11.348;2022-08-19T01:15:25;50.37;;;45.37;;
1603;SDS011;795;49.296;11.348;2022-08-19T01:18:02;50.53;;;45.53;;
1603;SDS011;795;49.296;11.348;2022-08-19T01:20:37;51.73;;;46.63;;
1603;SDS011;795;49.296;11.348;2022-08-19T01:23:06;51.70;;;46.53;;
1603;SDS011;795;49.296;11.348;2022-08-19T01:25:55;53.47;;;47.97;;
1603;SDS011;795;49.296;11.348;2022-08-19T01:28:25;52.27;;;46.97;;
1603;SDS011;795;49.296;11.348;2022-08-19T01:31:00;52.10;;;46.97;;
1603;SDS011;795;49.296;11.348;2022-08-19T01:33:33;53.27;;;47.70;;
1603;SDS011;795;49.296;11.348;2022-08-19T01:36:05;51.60;;;46.60;;
1603;SDS011;795;49.296;11.348;2022-08-19T01:38:48;50.33;;;45.07;;
1603;SDS011;795;49.296;11.348;2022-08-19T01:41:16;52.07;;;46.87;;
1603;SDS011;795;49.296;11.348;2022-08-19T01:43:44;51.80;;;46.63;;
1603;SDS011;795;49.296;11.348;2022-08-19T01:46:32;52.80;;;47.43;;
1603;SDS011;795;49.296;11.348;2022-08-19T01:49:00;50.07;;;45.23;;
1603;SDS011;795;49.296;11.348;2022-08-19T01:51:31;50.07;;;45.10;;
1603;SDS011;795;49.296;11.348;2022-08-19T01:54:05;51.00;;;45.90;;
1603;SDS011;795;49.296;11.348;2022-08-19T01:56:38;54.47;;;49.07;;
1603;SDS011;795;49.296;11.348;2022-08-19T01:59:08;55.50;;;46.93;;
1603;SDS011;795;49.296;11.348;2022-08-19T02:01:42;52.57;;;47.47;;
1603;SDS011;795;49.296;11.348;2022-08-19T02:04:09;54.70;;;48.90;;
1603;SDS011;795;49.296;11.348;2022-08-19T02:06:37;51.37;;;46.53;;
1603;SDS011;795;49.296;11.348;2022-08-19T02:09:05;54.07;;;48.60;;
1603;SDS011;795;49.296;11.348;2022-08-19T02:11:35;52.20;;;47.20;;
1603;SDS011;795;49.296;11.348;2022-08-19T02:14:05;52.23;;;46.90;;
1603;SDS011;795;49.296;11.348;2022-08-19T02:16:34;51.13;;;46.17;;
1603;SDS011;795;49.296;11.348;2022-08-19T02:19:03;49.93;;;45.00;;
1603;SDS011;795;49.296;11.348;2022-08-19T02:21:31;50.53;;;45.53;;
1603;SDS011;795;49.296;11.348;2022-08-19T02:23:59;51.20;;;46.00;;
1603;SDS011;795;49.296;11.348;2022-08-19T02:26:26;48.03;;;43.30;;
1603;SDS011;795;49.296;11.348;2022-08-19T02:28:53;51.30;;;46.50;;
1603;SDS011;795;49.296;11.348;2022-08-19T02:31:22;51.47;;;46.47;;
1603;SDS011;795;49.296;11.348;2022-08-19T02:33:52;51.43;;;46.33;;
1603;SDS011;795;49.296;11.348;2022-08-19T02:36:22;50.40;;;45.37;;
1603;SDS011;795;49.296;11.348;2022-08-19T02:38:51;52.00;;;46.50;;
1603;SDS011;795;49.296;11.348;2022-08-19T02:41:22;49.53;;;44.70;;
1603;SDS011;795;49.296;11.348;2022-08-19T02:43:57;51.20;;;45.77;;
1603;SDS011;795;49.296;11.348;2022-08-19T02:46:48;48.23;;;43.50;;
1603;SDS011;795;49.296;11.348;2022-08-19T02:49:18;48.90;;;44.03;;
1603;SDS011;795;49.296;11.348;2022-08-19T02:51:45;46.47;;;41.87;;
1603;SDS011;795;49.296;11.348;2022-08-19T02:54:14;49.07;;;44.00;;
1603;SDS011;795;49.296;11.348;2022-08-19T02:56:42;49.93;;;45.03;;
1603;SDS011;795;49.296;11.348;2022-08-19T02:59:10;51.93;;;46.73;;
1603;SDS011;795;49.296;11.348;2022-08-19T03:01:39;51.13;;;46.00;;
1603;SDS011;795;49.296;11.348;2022-08-19T03:04:09;50.97;;;45.77;;
1603;SDS011;795;49.296;11.348;2022-08-19T03:06:43;50.73;;;45.80;;
1603;SDS011;795;49.296;11.348;2022-08-19T03:09:13;49.30;;;44.07;;
1603;SDS011;795;49.296;11.348;2022-08-19T03:11:43;52.97;;;47.77;;
1603;SDS011;795;49.296;11.348;2022-08-19T03:14:10;49.90;;;45.10;;
1603;SDS011;795;49.296;11.348;2022-08-19T03:16:43;50.47;;;45.17;;
1603;SDS011;795;49.296;11.348;2022-08-19T03:19:16;50.00;;;45.00;;
1603;SDS011;795;49.296;11.348;2022-08-19T03:21:49;51.53;;;46.33;;
1603;SDS011;795;49.296;11.348;2022-08-19T03:24:18;52.10;;;46.50;;
1603;SDS011;795;49.296;11.348;2022-08-19T03:26:48;50.17;;;45.17;;
1603;SDS011;795;49.296;11.348;2022-08-19T03:29:24;51.20;;;46.20;;
1603;SDS011;795;49.296;11.348;2022-08-19T03:32:00;51.57;;;46.37;;
1603;SDS011;795;49.296;11.348;2022-08-19T03:34:49;50.63;;;45.53;;
1603;SDS011;795;49.296;11.348;2022-08-19T03:37:17;48.77;;;43.40;;
1603;SDS011;795;49.296;11.348;2022-08-19T03:39:43;53.50;;;48.00;;
1603;SDS011;795;49.296;11.348;2022-08-19T03:42:11;51.37;;;45.87;;
1603;SDS011;795;49.296;11.348;2022-08-19T03:44:58;49.87;;;44.47;;
1603;SDS011;795;49.296;11.348;2022-08-19T03:47:25;50.77;;;45.33;;
1603;SDS011;795;49.296;11.348;2022-08-19T03:49:52;50.27;;;44.97;;
1603;SDS011;795;49.296;11.348;2022-08-19T03:52:19;51.53;;;46.23;;
1603;SDS011;795;49.296;11.348;2022-08-19T03:54:46;52.37;;;46.70;;
1603;SDS011;795;49.296;11.348;2022-08-19T03:57:13;53.60;;;46.03;;
1603;SDS011;795;49.296;11.348;2022-08-19T03:59:40;51.60;;;46.37;;
1603;SDS011;795;49.296;11.348;2022-08-19T04:02:09;51.00;;;45.63;;
1603;SDS011;795;49.296;11.348;2022-08-19T04:04:39;51.73;;;46.33;;
1603;SDS011;795;49.296;11.348;2022-08-19T04:07:10;49.20;;;44.07;;
1603;SDS011;795;49.296;11.348;2022-08-19T04:09:42;49.50;;;44.47;;
1603;SDS011;795;49.296;11.348;2022-08-19T04:12:09;48.83;;;43.90;;
1603;SDS011;795;49.296;11.348;2022-08-19T04:14:36;49.80;;;44.70;;
1603;SDS011;795;49.296;11.348;2022-08-19T04:17:03;50.83;;;45.47;;
1603;SDS011;795;49.296;11.348;2022-08-19T04:19:31;49.27;;;44.27;;
1603;SDS011;795;49.296;11.348;2022-08-19T04:22:01;49.17;;;44.33;;
1603;SDS011;795;49.296;11.348;2022-08-19T04:24:30;47.83;;;43.07;;
1603;SDS011;795;49.296;11.348;2022-08-19T04:26:59;48.47;;;43.50;;
1603;SDS011;795;49.296;11.348;2022-08-19T04:29:28;48.03;;;43.27;;
1603;SDS011;795;49.296;11.348;2022-08-19T04:31:56;49.10;;;43.77;;
1603;SDS011;795;49.296;11.348;2022-08-19T04:34:34;49.77;;;44.53;;
1603;SDS011;795;49.296;11.348;2022-08-19T04:37:24;46.17;;;41.53;;
1603;SDS011;795;49.296;11.348;2022-08-19T04:40:00;49.37;;;44.37;;
1603;SDS011;795;49.296;11.348;2022-08-19T04:42:49;48.10;;;42.97;;
1603;SDS011;795;49.296;11.348;2022-08-19T04:45:17;45.27;;;40.93;;
1603;SDS011;795;49.296;11.348;2022-08-19T04:47:48;46.77;;;42.17;;
1603;SDS011;795;49.296;11.348;2022-08-19T04:50:25;47.47;;;42.60;;
1603;SDS011;795;49.296;11.348;2022-08-19T04:52:52;47.87;;;43.07;;
1603;SDS011;795;49.296;11.348;2022-08-19T04:55:22;44.40;;;39.97;;
1603;SDS011;795;49.296;11.348;2022-08-19T04:57:52;45.23;;;40.87;;
1603;SDS011;795;49.296;11.348;2022-08-19T05:00:20;43.40;;;39.10;;
1603;SDS011;795;49.296;11.348;2022-08-19T05:02:48;44.97;;;40.47;;
1603;SDS011;795;49.296;11.348;2022-08-19T05:05:16;43.43;;;39.23;;
1603;SDS011;795;49.296;11.348;2022-08-19T05:07:43;41.53;;;37.60;;
1603;SDS011;795;49.296;11.348;2022-08-19T05:10:10;43.33;;;39.23;;
1603;SDS011;795;49.296;11.348;2022-08-19T05:12:38;43.20;;;39.10;;
1603;SDS011;795;49.296;11.348;2022-08-19T05:15:06;42.33;;;38.13;;
1603;SDS011;795;49.296;11.348;2022-08-19T05:17:34;42.57;;;38.43;;
1603;SDS011;795;49.296;11.348;2022-08-19T05:20:05;42.53;;;38.43;;
1603;SDS011;795;49.296;11.348;2022-08-19T05:22:53;43.73;;;39.33;;
1603;SDS011;795;49.296;11.348;2022-08-19T05:25:21;41.70;;;37.37;;
1603;SDS011;795;49.296;11.348;2022-08-19T05:27:49;41.60;;;37.60;;
1603;SDS011;795;49.296;11.348;2022-08-19T05:30:16;42.67;;;38.63;;
1603;SDS011;795;49.296;11.348;2022-08-19T05:33:04;41.93;;;37.77;;
1603;SDS011;795;49.296;11.348;2022-08-19T05:35:31;42.53;;;38.23;;
1603;SDS011;795;49.296;11.348;2022-08-19T05:37:59;42.13;;;38.03;;
1603;SDS011;795;49.296;11.348;2022-08-19T05:40:27;42.67;;;38.63;;
1603;SDS011;795;49.296;11.348;2022-08-19T05:42:54;41.40;;;37.40;;
1603;SDS011;795;49.296;11.348;2022-08-19T05:45:22;42.33;;;38.23;;
1603;SDS011;795;49.296;11.348;2022-08-19T05:47:48;40.87;;;36.83;;
1603;SDS011;795;49.296;11.348;2022-08-19T05:50:15;41.03;;;37.13;;
1603;SDS011;795;49.296;11.348;2022-08-19T05:52:43;40.03;;;36.00;;
1603;SDS011;795;49.296;11.348;2022-08-19T05:55:16;40.90;;;37.03;;
1603;SDS011;795;49.296;11.348;2022-08-19T05:57:46;41.10;;;37.10;;
1603;SDS011;795;49.296;11.348;2022-08-19T06:00:13;42.10;;;38.07;;
1603;SDS011;795;49.296;11.348;2022-08-19T06:02:41;40.90;;;36.90;;
1603;SDS011;795;49.296;11.348;2022-08-19T06:05:08;36.73;;;33.37;;
1603;SDS011;795;49.296;11.348;2022-08-19T06:07:37;41.40;;;37.57;;
1603;SDS011;795;49.296;11.348;2022-08-19T06:10:06;38.63;;;35.10;;
1603;SDS011;795;49.296;11.348;2022-08-19T06:12:37;38.57;;;34.77;;
1603;SDS011;795;49.296;11.348;2022-08-19T06:15:07;39.87;;;36.20;;
1603;SDS011;795;49.296;11.348;2022-08-19T06:17:39;37.90;;;34.40;;
1603;SDS011;795;49.296;11.348;2022-08-19T06:20:09;37.37;;;33.97;;
1603;SDS011;795;49.296;11.348;2022-08-19T06:22:41;38.30;;;34.70;;
1603;SDS011;795;49.296;11.348;2022-08-19T06:25:13;36.63;;;31.63;;
1603;SDS011;795;49.296;11.348;2022-08-19T06:27:41;35.17;;;31.93;;
1603;SDS011;795;49.296;11.348;2022-08-19T06:30:29;34.90;;;31.50;;
1603;SDS011;795;49.296;11.348;2022-08-19T06:32:56;38.00;;;34.27;;
1603;SDS011;795;49.296;11.348;2022-08-19T06:35:23;35.50;;;32.30;;
1603;SDS011;795;49.296;11.348;2022-08-19T06:37:51;37.80;;;34.37;;
1603;SDS011;795;49.296;11.348;2022-08-19T06:40:18;37.73;;;34.43;;
1603;SDS011;795;49.296;11.348;2022-08-19T06:42:45;37.60;;;33.73;;
1603;SDS011;795;49.296;11.348;2022-08-19T06:45:21;34.60;;;31.50;;
1603;SDS011;795;49.296;11.348;2022-08-19T06:47:59;36.97;;;33.77;;
1603;SDS011;795;49.296;11.348;2022-08-19T06:50:26;34.70;;;31.57;;
1603;SDS011;795;49.296;11.348;2022-08-19T06:52:53;33.90;;;30.50;;
1603;SDS011;795;49.296;11.348;2022-08-19T06:55:21;35.80;;;32.50;;
1603;SDS011;795;49.296;11.348;2022-08-19T06:57:49;32.10;;;29.30;;
1603;SDS011;795;49.296;11.348;2022-08-19T07:00:19;28.97;;;26.40;;
1603;SDS011;795;49.296;11.348;2022-08-19T07:02:47;32.47;;;29.67;;
1603;SDS011;795;49.296;11.348;2022-08-19T07:05:24;33.10;;;30.00;;
1603;SDS011;795;49.296;11.348;2022-08-19T07:07:51;29.90;;;27.20;;
1603;SDS011;795;49.296;11.348;2022-08-19T07:10:22;30.17;;;27.73;;
1603;SDS011;795;49.296;11.348;2022-08-19T07:12:51;27.97;;;25.37;;
1603;SDS011;795;49.296;11.348;2022-08-19T07:15:18;26.80;;;24.57;;
1603;SDS011;795;49.296;11.348;2022-08-19T07:17:47;24.90;;;22.80;;
1603;SDS011;795;49.296;11.348;2022-08-19T07:20:18;24.17;;;22.00;;
1603;SDS011;795;49.296;11.348;2022-08-19T07:22:45;26.00;;;23.77;;
1603;SDS011;795;49.296;11.348;2022-08-19T07:25:12;24.20;;;22.10;;
1603;SDS011;795;49.296;11.348;2022-08-19T07:27:39;25.17;;;22.97;;
1603;SDS011;795;49.296;11.348;2022-08-19T07:30:11;24.43;;;22.20;;
1603;SDS011;795;49.296;11.348;2022-08-19T07:32:39;25.10;;;23.00;;
1603;SDS011;795;49.296;11.348;2022-08-19T07:35:07;21.03;;;19.33;;
1603;SDS011;795;49.296;11.348;2022-08-19T07:37:36;22.53;;;20.73;;
1603;SDS011;795;49.296;11.348;2022-08-19T07:40:07;22.10;;;20.20;;
1603;SDS011;795;49.296;11.348;2022-08-19T07:42:35;21.70;;;19.83;;
1603;SDS011;795;49.296;11.348;2022-08-19T07:45:02;27.93;;;21.10;;
1603;SDS011;795;49.296;11.348;2022-08-19T07:47:33;23.53;;;21.63;;
1603;SDS011;795;49.296;11.348;2022-08-19T07:50:16;23.00;;;21.03;;
1603;SDS011;795;49.296;11.348;2022-08-19T07:52:46;22.73;;;20.83;;
1603;SDS011;795;49.296;11.348;2022-08-19T07:55:17;23.70;;;21.50;;
1603;SDS011;795;49.296;11.348;2022-08-19T07:58:08;23.27;;;21.30;;
1603;SDS011;795;49.296;11.348;2022-08-19T08:03:53;23.43;;;21.37;;
1603;SDS011;795;49.296;11.348;2022-08-19T08:06:42;24.83;;;22.63;;
1603;SDS011;795;49.296;11.348;2022-08-19T08:09:29;23.77;;;21.77;;
1603;SDS011;795;49.296;11.348;2022-08-19T08:12:09;32.73;;;25.33;;
1603;SDS011;795;49.296;11.348;2022-08-19T08:15:00;23.63;;;21.53;;
1603;SDS011;795;49.296;11.348;2022-08-19T08:17:38;21.93;;;20.13;;
1603;SDS011;795;49.296;11.348;2022-08-19T08:20:17;23.20;;;21.13;;
1603;SDS011;795;49.296;11.348;2022-08-19T08:22:45;21.50;;;19.70;;
1603;SDS011;795;49.296;11.348;2022-08-19T08:25:33;20.50;;;18.90;;
1603;SDS011;795;49.296;11.348;2022-08-19T08:28:02;19.47;;;17.77;;
1603;SDS011;795;49.296;11.348;2022-08-19T08:30:30;19.03;;;17.43;;
1603;SDS011;795;49.296;11.348;2022-08-19T08:32:59;19.57;;;17.97;;
1603;SDS011;795;49.296;11.348;2022-08-19T08:35:27;18.90;;;17.20;;
1603;SDS011;795;49.296;11.348;2022-08-19T08:37:55;20.90;;;19.10;;
1603;SDS011;795;49.296;11.348;2022-08-19T08:40:30;20.17;;;18.50;;
1603;SDS011;795;49.296;11.348;2022-08-19T08:43:18;21.80;;;19.90;;
1603;SDS011;795;49.296;11.348;2022-08-19T08:46:10;20.23;;;18.33;;
1603;SDS011;795;49.296;11.348;2022-08-19T08:49:07;19.30;;;17.70;;
1603;SDS011;795;49.296;11.348;2022-08-19T08:52:04;18.20;;;16.53;;
1603;SDS011;795;49.296;11.348;2022-08-19T08:54:45;18.63;;;17.03;;
1603;SDS011;795;49.296;11.348;2022-08-19T08:57:26;18.03;;;16.53;;
1603;SDS011;795;49.296;11.348;2022-08-19T09:00:15;19.53;;;17.80;;
1603;SDS011;795;49.296;11.348;2022-08-19T09:02:57;19.50;;;17.77;;
1603;SDS011;795;49.296;11.348;2022-08-19T09:05:36;19.23;;;17.63;;
1603;SDS011;795;49.296;11.348;2022-08-19T09:17:29;18.63;;;16.93;;
1603;SDS011;795;49.296;11.348;2022-08-19T09:20:21;18.33;;;16.73;;
1603;SDS011;795;49.296;11.348;2022-08-19T09:22:51;19.13;;;17.20;;
1603;SDS011;795;49.296;11.348;2022-08-19T09:25:19;19.40;;;17.80;;
1603;SDS011;795;49.296;11.348;2022-08-19T09:27:52;18.30;;;16.50;;
1603;SDS011;795;49.296;11.348;2022-08-19T09:30:30;19.00;;;17.30;;
1603;SDS011;795;49.296;11.348;2022-08-19T09:33:06;18.10;;;16.40;;
1603;SDS011;795;49.296;11.348;2022-08-19T09:35:34;19.03;;;17.33;;
1603;SDS011;795;49.296;11.348;2022-08-19T09:38:18;18.03;;;16.10;;
1603;SDS011;795;49.296;11.348;2022-08-19T09:40:47;19.70;;;17.90;;
1603;SDS011;795;49.296;11.348;2022-08-19T09:43:16;18.53;;;16.90;;
1603;SDS011;795;49.296;11.348;2022-08-19T09:45:59;18.17;;;16.57;;
1603;SDS011;795;49.296;11.348;2022-08-19T09:48:27;18.03;;;16.50;;
1603;SDS011;795;49.296;11.348;2022-08-19T09:51:01;19.23;;;17.60;;
1603;SDS011;795;49.296;11.348;2022-08-19T09:53:31;19.50;;;17.63;;
1603;SDS011;795;49.296;11.348;2022-08-19T09:55:59;18.07;;;16.57;;
1603;SDS011;795;49.296;11.348;2022-08-19T09:58:29;20.47;;;18.67;;
1603;SDS011;795;49.296;11.348;2022-08-19T10:00:57;20.70;;;18.80;;
1603;SDS011;795;49.296;11.348;2022-08-19T10:03:28;20.43;;;18.77;;
1603;SDS011;795;49.296;11.348;2022-08-19T10:06:02;22.93;;;20.83;;
1603;SDS011;795;49.296;11.348;2022-08-19T10:08:42;21.10;;;19.27;;
1603;SDS011;795;49.296;11.348;2022-08-19T10:11:15;23.27;;;21.03;;
1603;SDS011;795;49.296;11.348;2022-08-19T10:14:01;24.87;;;22.13;;
1603;SDS011;795;49.296;11.348;2022-08-19T10:16:31;24.07;;;21.77;;
1603;SDS011;795;49.296;11.348;2022-08-19T10:19:05;24.97;;;22.57;;
1603;SDS011;795;49.296;11.348;2022-08-19T10:21:33;23.97;;;21.77;;
1603;SDS011;795;49.296;11.348;2022-08-19T10:24:00;21.50;;;19.67;;
1603;SDS011;795;49.296;11.348;2022-08-19T10:26:35;22.80;;;20.80;;
1603;SDS011;795;49.296;11.348;2022-08-19T10:29:12;23.00;;;20.80;;
1603;SDS011;795;49.296;11.348;2022-08-19T10:31:58;23.90;;;21.67;;
1603;SDS011;795;49.296;11.348;2022-08-19T10:34:38;24.00;;;21.80;;
1603;SDS011;795;49.296;11.348;2022-08-19T10:37:14;26.07;;;23.43;;
1603;SDS011;795;49.296;11.348;2022-08-19T10:39:56;26.90;;;24.17;;
1603;SDS011;795;49.296;11.348;2022-08-19T10:42:24;26.20;;;23.70;;
1603;SDS011;795;49.296;11.348;2022-08-19T10:44:51;24.57;;;21.80;;
1603;SDS011;795;49.296;11.348;2022-08-19T10:47:18;26.73;;;24.10;;
1603;SDS011;795;49.296;11.348;2022-08-19T10:49:51;27.83;;;25.33;;
1603;SDS011;795;49.296;11.348;2022-08-19T10:52:40;29.40;;;26.40;;
1603;SDS011;795;49.296;11.348;2022-08-19T10:55:16;28.73;;;25.83;;
1603;SDS011;795;49.296;11.348;2022-08-19T10:58:14;27.40;;;24.70;;
1603;SDS011;795;49.296;11.348;2022-08-19T11:00:52;31.20;;;28.10;;
1603;SDS011;795;49.296;11.348;2022-08-19T11:03:24;29.07;;;26.37;;
1603;SDS011;795;49.296;11.348;2022-08-19T11:06:01;30.73;;;27.60;;
1603;SDS011;795;49.296;11.348;2022-08-19T11:08:35;28.13;;;25.27;;
1603;SDS011;795;49.296;11.348;2022-08-19T11:11:06;32.10;;;27.63;;
1603;SDS011;795;49.296;11.348;2022-08-19T11:13:35;30.73;;;27.90;;
1603;SDS011;795;49.296;11.348;2022-08-19T11:16:10;30.97;;;27.77;;
1603;SDS011;795;49.296;11.348;2022-08-19T11:18:48;30.63;;;27.73;;
1603;SDS011;795;49.296;11.348;2022-08-19T11:21:22;28.80;;;26.00;;
1603;SDS011;795;49.296;11.348;2022-08-19T11:24:08;29.30;;;26.40;;
1603;SDS011;795;49.296;11.348;2022-08-19T11:26:42;30.80;;;27.80;;
1603;SDS011;795;49.296;11.348;2022-08-19T11:29:11;27.33;;;24.50;;
1603;SDS011;795;49.296;11.348;2022-08-19T11:31:41;26.87;;;24.50;;
1603;SDS011;795;49.296;11.348;2022-08-19T11:34:14;28.37;;;25.57;;
1603;SDS011;795;49.296;11.348;2022-08-19T11:36:47;28.37;;;24.50;;
1603;SDS011;795;49.296;11.348;2022-08-19T11:39:18;27.63;;;25.03;;
1603;SDS011;795;49.296;11.348;2022-08-19T11:41:48;26.23;;;23.73;;
1603;SDS011;795;49.296;11.348;2022-08-19T11:44:15;25.20;;;22.80;;
1603;SDS011;795;49.296;11.348;2022-08-19T11:46:43;24.20;;;22.00;;
1603;SDS011;795;49.296;11.348;2022-08-19T11:49:13;24.50;;;22.10;;
1603;SDS011;795;49.296;11.348;2022-08-19T11:51:47;24.90;;;22.57;;
1603;SDS011;795;49.296;11.348;2022-08-19T11:54:18;23.10;;;20.90;;
1603;SDS011;795;49.296;11.348;2022-08-19T11:56:45;25.57;;;23.27;;
1603;SDS011;795;49.296;11.348;2022-08-19T11:59:14;25.80;;;23.40;;
1603;SDS011;795;49.296;11.348;2022-08-19T12:01:41;25.57;;;23.23;;
1603;SDS011;795;49.296;11.348;2022-08-19T12:04:09;29.10;;;25.57;;
1603;SDS011;795;49.296;11.348;2022-08-19T12:06:38;25.90;;;23.40;;
1603;SDS011;795;49.296;11.348;2022-08-19T12:09:08;25.77;;;23.13;;
1603;SDS011;795;49.296;11.348;2022-08-19T12:11:37;26.43;;;24.00;;
1603;SDS011;795;49.296;11.348;2022-08-19T12:14:06;26.67;;;24.43;;
1603;SDS011;795;49.296;11.348;2022-08-19T12:16:40;25.53;;;23.17;;
1603;SDS011;795;49.296;11.348;2022-08-19T12:19:17;27.33;;;24.77;;
1603;SDS011;795;49.296;11.348;2022-08-19T12:21:48;27.13;;;24.53;;
1603;SDS011;795;49.296;11.348;2022-08-19T12:24:17;27.93;;;25.37;;
1603;SDS011;795;49.296;11.348;2022-08-19T12:26:49;28.30;;;25.60;;
1603;SDS011;795;49.296;11.348;2022-08-19T12:29:19;30.97;;;28.07;;
1603;SDS011;795;49.296;11.348;2022-08-19T12:31:54;30.27;;;27.37;;
1603;SDS011;795;49.296;11.348;2022-08-19T12:34:30;30.40;;;27.60;;
1603;SDS011;795;49.296;11.348;2022-08-19T12:37:00;29.50;;;26.43;;
1603;SDS011;795;49.296;11.348;2022-08-19T12:39:35;29.60;;;26.80;;
1603;SDS011;795;49.296;11.348;2022-08-19T12:42:07;26.67;;;24.17;;
1603;SDS011;795;49.296;11.348;2022-08-19T12:44:38;28.47;;;25.87;;
1603;SDS011;795;49.296;11.348;2022-08-19T12:47:10;30.93;;;28.03;;
1603;SDS011;795;49.296;11.348;2022-08-19T12:49:41;30.33;;;27.43;;
1603;SDS011;795;49.296;11.348;2022-08-19T12:52:22;31.17;;;28.27;;
1603;SDS011;795;49.296;11.348;2022-08-19T12:54:56;30.20;;;27.20;;
1603;SDS011;795;49.296;11.348;2022-08-19T12:57:25;31.80;;;28.70;;
1603;SDS011;795;49.296;11.348;2022-08-19T13:02:44;33.73;;;30.33;;
1603;SDS011;795;49.296;11.348;2022-08-19T13:05:17;32.90;;;29.67;;
1603;SDS011;795;49.296;11.348;2022-08-19T13:07:59;32.13;;;29.13;;
1603;SDS011;795;49.296;11.348;2022-08-19T13:10:28;32.10;;;28.87;;
1603;SDS011;795;49.296;11.348;2022-08-19T13:13:01;32.43;;;29.43;;
1603;SDS011;795;49.296;11.348;2022-08-19T13:15:33;32.70;;;29.70;;
1603;SDS011;795;49.296;11.348;2022-08-19T13:18:06;33.10;;;30.13;;
1603;SDS011;795;49.296;11.348;2022-08-19T13:20:36;33.83;;;30.53;;
1603;SDS011;795;49.296;11.348;2022-08-19T13:23:07;31.20;;;28.20;;
1603;SDS011;795;49.296;11.348;2022-08-19T13:25:35;30.93;;;28.27;;
1603;SDS011;795;49.296;11.348;2022-08-19T13:28:03;31.60;;;28.67;;
1603;SDS011;795;49.296;11.348;2022-08-19T13:30:32;30.20;;;27.33;;
1603;SDS011;795;49.296;11.348;2022-08-19T13:33:18;31.63;;;28.77;;
1603;SDS011;795;49.296;11.348;2022-08-19T13:35:51;30.47;;;27.50;;
1603;SDS011;795;49.296;11.348;2022-08-19T13:38:27;29.93;;;27.10;;
1603;SDS011;795;49.296;11.348;2022-08-19T13:40:54;28.50;;;25.97;;
1603;SDS011;795;49.296;11.348;2022-08-19T13:43:23;28.73;;;25.93;;
1603;SDS011;795;49.296;11.348;2022-08-19T13:45:54;30.07;;;27.37;;
1603;SDS011;795;49.296;11.348;2022-08-19T13:48:23;29.93;;;26.60;;
1603;SDS011;795;49.296;11.348;2022-08-19T13:50:53;30.03;;;27.20;;
1603;SDS011;795;49.296;11.348;2022-08-19T13:53:21;28.30;;;25.27;;
1603;SDS011;795;49.296;11.348;2022-08-19T13:55:48;26.53;;;23.93;;
1603;SDS011;795;49.296;11.348;2022-08-19T13:58:17;27.10;;;24.50;;
1603;SDS011;795;49.296;11.348;2022-08-19T14:00:45;27.47;;;25.07;;
1603;SDS011;795;49.296;11.348;2022-08-19T14:03:12;26.93;;;24.27;;
1603;SDS011;795;49.296;11.348;2022-08-19T14:05:40;26.50;;;24.20;;
1603;SDS011;795;49.296;11.348;2022-08-19T14:08:07;27.40;;;24.90;;
1603;SDS011;795;49.296;11.348;2022-08-19T14:10:35;27.60;;;24.90;;
1603;SDS011;795;49.296;11.348;2022-08-19T14:13:02;28.40;;;25.90;;
1603;SDS011;795;49.296;11.348;2022-08-19T14:15:30;30.47;;;27.53;;
1603;SDS011;795;49.296;11.348;2022-08-19T14:18:00;28.47;;;25.90;;
1603;SDS011;795;49.296;11.348;2022-08-19T14:20:33;30.67;;;27.67;;
1603;SDS011;795;49.296;11.348;2022-08-19T14:23:05;29.03;;;26.20;;
1603;SDS011;795;49.296;11.348;2022-08-19T14:25:37;29.77;;;26.83;;
1603;SDS011;795;49.296;11.348;2022-08-19T14:28:08;27.63;;;25.23;;
1603;SDS011;795;49.296;11.348;2022-08-19T14:30:39;30.97;;;28.07;;
1603;SDS011;795;49.296;11.348;2022-08-19T14:33:12;30.87;;;26.70;;
1603;SDS011;795;49.296;11.348;2022-08-19T14:35:43;30.03;;;26.00;;
1603;SDS011;795;49.296;11.348;2022-08-19T14:38:15;28.70;;;23.87;;
1603;SDS011;795;49.296;11.348;2022-08-19T14:41:07;23.33;;;21.03;;
1603;SDS011;795;49.296;11.348;2022-08-19T14:43:45;18.27;;;15.57;;
1603;SDS011;795;49.296;11.348;2022-08-19T14:46:23;19.17;;;17.07;;
1603;SDS011;795;49.296;11.348;2022-08-19T14:48:57;19.03;;;16.27;;
1603;SDS011;795;49.296;11.348;2022-08-19T14:51:35;16.27;;;14.67;;
1603;SDS011;795;49.296;11.348;2022-08-19T14:54:06;17.23;;;15.43;;
1603;SDS011;795;49.296;11.348;2022-08-19T14:56:37;19.63;;;17.63;;
1603;SDS011;795;49.296;11.348;2022-08-19T14:59:11;19.00;;;17.20;;
1603;SDS011;795;49.296;11.348;2022-08-19T15:01:43;17.40;;;15.80;;
1603;SDS011;795;49.296;11.348;2022-08-19T15:04:13;20.13;;;16.53;;
1603;SDS011;795;49.296;11.348;2022-08-19T15:06:48;17.93;;;16.07;;
1603;SDS011;795;49.296;11.348;2022-08-19T15:09:19;18.67;;;16.90;;
1603;SDS011;795;49.296;11.348;2022-08-19T15:11:50;18.03;;;16.33;;
1603;SDS011;795;49.296;11.348;2022-08-19T15:14:21;17.47;;;15.87;;
1603;SDS011;795;49.296;11.348;2022-08-19T15:17:02;17.33;;;15.80;;
1603;SDS011;795;49.296;11.348;2022-08-19T15:19:34;18.80;;;17.07;;
1603;SDS011;795;49.296;11.348;2022-08-19T15:22:05;19.93;;;18.07;;
1603;SDS011;795;49.296;11.348;2022-08-19T15:24:36;20.97;;;18.17;;
1603;SDS011;795;49.296;11.348;2022-08-19T15:27:14;19.40;;;17.33;;
1603;SDS011;795;49.296;11.348;2022-08-19T15:29:45;18.53;;;16.70;;
1603;SDS011;795;49.296;11.348;2022-08-19T15:32:27;18.10;;;16.30;;
1603;SDS011;795;49.296;11.348;2022-08-19T15:34:58;19.70;;;17.73;;